Marco Polo — BR2031 — position and weather

sailwx.info

Track history (hours):
 
Tides and Currents Weather Stations Pressure Air Temp Water Temp Dewpoint Dewpoint Depression Visibility Wind Speed Wind Dir Waves Ship Positions

Marco Polo

Last reported at 2014-Dec-19 09:33 UTC. Time now 2014-Dec-19 12:16 UTC.
Position N 24°25' E 118°17'.

Length 32 m.

MMSI: 416000256.

Date/timePositionNaut miles runAvg speedWind from/ knotsBaromVisibWave heightAir tempDewpointWater temp
2014-Dec-19 09:33N 24°25' E 118°17'0 0.0
2014-Dec-19 08:33N 24°25' E 118°17'0 0.3
2014-Dec-19 07:29N 24°25' E 118°17'9 9.5
2014-Dec-19 06:33N 24°32' E 118°11'9 8.7
2014-Dec-19 05:31N 24°25' E 118°17'0 0.0
2014-Dec-19 04:32N 24°25' E 118°17'1 0.4
2014-Dec-19 01:33N 24°26' E 118°17'8 7.8
2014-Dec-19 00:32N 24°32' E 118°11'9 1.0
2014-Dec-18 15:28N 24°25' E 118°17'9 1.5
2014-Dec-18 09:29N 24°32' E 118°11'2 0.5
2014-Dec-18 04:29N 24°31' E 118°14'6 0.6
2014-Dec-17 17:24N 24°25' E 118°17'0 0.0
2014-Dec-17 16:29N 24°25' E 118°17'0 0.1
2014-Dec-17 08:32N 24°25' E 118°17'9 7.9
2014-Dec-17 07:24N 24°32' E 118°11'9 3.8
2014-Dec-17 05:03N 24°25' E 118°17'0 0.0
2014-Dec-17 04:30N 24°25' E 118°17'7 7.9
2014-Dec-17 03:33N 24°31' E 118°13'0 0.1
2014-Dec-17 02:31N 24°31' E 118°13'7 5.6
2014-Dec-17 01:10N 24°25' E 118°17'0 0.1
2014-Dec-17 00:33N 24°25' E 118°17'0 0.0
2014-Dec-16 23:29N 24°25' E 118°17'0 0.0
2014-Dec-16 22:33N 24°25' E 118°17'0 0.0
2014-Dec-16 21:33N 24°25' E 118°17'0 0.0
2014-Dec-16 20:33N 24°25' E 118°17'0 0.0
2014-Dec-16 19:32N 24°25' E 118°17'0 0.0
2014-Dec-16 18:33N 24°25' E 118°17'0 0.0
2014-Dec-16 17:32N 24°25' E 118°17'0 0.0
2014-Dec-16 16:33N 24°25' E 118°17'0 0.0
2014-Dec-16 15:33N 24°25' E 118°17'0 0.0
2014-Dec-16 14:33N 24°25' E 118°17'0 0.0
2014-Dec-16 09:33N 24°25' E 118°17'0 0.0
2014-Dec-16 08:32N 24°25' E 118°17'0 0.0
2014-Dec-16 07:32N 24°25' E 118°17'0 0.2
2014-Dec-16 06:33N 24°25' E 118°17'9 7.5
2014-Dec-16 05:23N 24°32' E 118°11'4 3.9
2014-Dec-16 04:25N 24°30' E 118°15'6 5.5
2014-Dec-16 03:24N 24°25' E 118°17'5 4.7
2014-Dec-16 02:15N 24°30' E 118°15'1 1.6
2014-Dec-16 01:32N 24°31' E 118°14'6 2.8
2014-Dec-15 23:11N 24°25' E 118°17'0 0.0
2014-Dec-15 22:13N 24°25' E 118°17'0 0.0
2014-Dec-15 21:29N 24°25' E 118°17'0 0.0
2014-Dec-15 20:33N 24°25' E 118°17'0 0.0
2014-Dec-15 18:08N 24°25' E 118°17'0 0.0
2014-Dec-15 15:24N 24°25' E 118°17'0 0.0
2014-Dec-15 09:28N 24°25' E 118°17'9 8.5
2014-Dec-15 08:25N 24°32' E 118°11'910.1
2014-Dec-15 07:31N 24°25' E 118°17'7 1.8
2014-Dec-15 03:33N 24°31' E 118°13'0 0.2
2014-Dec-15 02:33N 24°31' E 118°13'7 7.0
2014-Dec-15 01:29N 24°25' E 118°17'0 0.1
2014-Dec-15 00:32N 24°25' E 118°17'0 0.0
2014-Dec-14 23:33N 24°25' E 118°17'0 0.0
2014-Dec-14 22:33N 24°25' E 118°17'0 0.0
2014-Dec-14 21:31N 24°25' E 118°17'0 0.0
2014-Dec-14 20:32N 24°25' E 118°17'0 0.0
2014-Dec-14 19:32N 24°25' E 118°17'0 0.0
2014-Dec-14 18:34N 24°25' E 118°17'0 0.0
2014-Dec-14 17:34N 24°25' E 118°17'0 0.0
2014-Dec-14 16:34N 24°25' E 118°17'0 0.0
2014-Dec-14 15:33N 24°25' E 118°17'0 0.0
2014-Dec-14 14:31N 24°25' E 118°17'0 0.0
2014-Dec-14 09:33N 24°25' E 118°17'0 0.0
2014-Dec-14 08:30N 24°25' E 118°17'0 0.1
2014-Dec-14 07:32N 24°25' E 118°17'9 8.3
2014-Dec-14 06:27N 24°32' E 118°11'9 9.9
2014-Dec-14 05:33N 24°25' E 118°17'0 0.1
2014-Dec-14 04:04N 24°25' E 118°17'0 0.1
2014-Dec-14 03:33N 24°25' E 118°17'0 0.0
2014-Dec-14 02:32N 24°25' E 118°17'0 0.1
2014-Dec-14 01:33N 24°25' E 118°17'9 8.2
2014-Dec-14 00:31N 24°32' E 118°12'9 8.3
2014-Dec-13 23:28N 24°25' E 118°17'0 0.0
2014-Dec-13 22:31N 24°25' E 118°17'0 0.0
2014-Dec-13 21:30N 24°25' E 118°17'0 0.0
2014-Dec-13 20:33N 24°25' E 118°17'0 0.0
2014-Dec-13 19:32N 24°25' E 118°17'0 0.0
2014-Dec-13 18:30N 24°25' E 118°17'0 0.0
2014-Dec-13 17:28N 24°25' E 118°17'0 0.0
2014-Dec-13 16:32N 24°25' E 118°17'0 0.0
2014-Dec-13 15:32N 24°25' E 118°17'9 1.5
2014-Dec-13 09:30N 24°32' E 118°11'9 9.1
2014-Dec-13 08:33N 24°25' E 118°17'0 0.3
2014-Dec-13 07:26N 24°25' E 118°17'0 0.4
2014-Dec-13 06:19N 24°25' E 118°17'0 0.0
2014-Dec-13 05:28N 24°25' E 118°17'0 0.0
2014-Dec-13 01:25N 24°25' E 118°17'0 0.0
2014-Dec-13 00:25N 24°25' E 118°17'0 0.0
2014-Dec-12 23:33N 24°25' E 118°17'0 0.0
2014-Dec-12 22:32N 24°25' E 118°17'0 0.0
2014-Dec-12 21:31N 24°25' E 118°17'0 0.0
2014-Dec-12 20:33N 24°25' E 118°17'0 0.0
2014-Dec-12 19:22N 24°25' E 118°17'0 0.0
2014-Dec-12 18:32N 24°25' E 118°17'0 0.0
2014-Dec-12 17:32N 24°25' E 118°17'0 0.0
2014-Dec-12 16:30N 24°25' E 118°17'0 0.0
2014-Dec-12 15:33N 24°25' E 118°17'0 0.0
2014-Dec-12 09:08N 24°25' E 118°17'0 0.8
2014-Dec-12 08:33N 24°25' E 118°17'9 8.1
2014-Dec-12 07:26N 24°32' E 118°11'9 9.3
2014-Dec-12 06:28N 24°25' E 118°17'0 0.1
2014-Dec-12 05:32N 24°25' E 118°17'7 7.6
2014-Dec-12 04:33N 24°31' E 118°13'1 1.0
2014-Dec-12 03:32N 24°32' E 118°12'8 3.7
2014-Dec-12 01:22N 24°25' E 118°17'0 0.0
2014-Dec-12 00:23N 24°25' E 118°17'0 0.0
2014-Dec-11 23:31N 24°25' E 118°17'0 0.0
2014-Dec-11 22:33N 24°25' E 118°17'0 0.0
2014-Dec-11 21:30N 24°25' E 118°17'0 0.0
2014-Dec-11 20:33N 24°25' E 118°17'0 0.0
2014-Dec-11 19:33N 24°25' E 118°17'0 0.0
2014-Dec-11 18:33N 24°25' E 118°17'0 0.0
2014-Dec-11 17:32N 24°25' E 118°17'0 0.0
2014-Dec-11 16:32N 24°25' E 118°17'0 0.0
2014-Dec-11 15:32N 24°25' E 118°17'0 0.0
2014-Dec-11 09:29N 24°25' E 118°17'0 0.0
2014-Dec-11 08:33N 24°25' E 118°17'0 0.0
2014-Dec-11 07:28N 24°25' E 118°17'0 0.4
2014-Dec-11 06:33N 24°25' E 118°17'9 6.5
2014-Dec-11 05:11N 24°32' E 118°11'1 2.2
2014-Dec-11 04:32N 24°31' E 118°13'8 6.7
2014-Dec-11 03:23N 24°25' E 118°17'2 2.2
2014-Dec-11 02:31N 24°27' E 118°17'6 6.2
2014-Dec-11 01:34N 24°31' E 118°13'8 5.3
2014-Dec-11 00:08N 24°25' E 118°17'0 0.0
2014-Dec-10 23:11N 24°25' E 118°17'0 0.0
2014-Dec-10 22:26N 24°25' E 118°17'0 0.0
2014-Dec-10 21:17N 24°25' E 118°17'0 0.0
2014-Dec-10 20:33N 24°25' E 118°17'0 0.0
2014-Dec-10 19:15N 24°25' E 118°17'0 0.0
2014-Dec-10 18:32N 24°25' E 118°17'0 0.0
2014-Dec-10 17:25N 24°25' E 118°17'0 0.0
2014-Dec-10 16:33N 24°25' E 118°17'0 0.0
2014-Dec-10 09:34N 24°25' E 118°17'9 7.1
2014-Dec-10 08:20N 24°32' E 118°11'911.1
2014-Dec-10 07:32N 24°25' E 118°17'0 0.4
2014-Dec-10 06:32N 24°25' E 118°17'0 0.1
2014-Dec-10 04:16N 24°25' E 118°17'810.2
2014-Dec-10 03:31N 24°32' E 118°13'1 0.8
2014-Dec-10 02:32N 24°32' E 118°12'9 4.3
2014-Dec-10 00:33N 24°25' E 118°17'0 0.0
2014-Dec-09 23:33N 24°25' E 118°17'0 0.0
2014-Dec-09 22:31N 24°25' E 118°17'0 0.0
2014-Dec-09 21:33N 24°25' E 118°17'0 0.0
2014-Dec-09 20:33N 24°25' E 118°17'0 0.0
2014-Dec-09 19:33N 24°25' E 118°17'0 0.0
2014-Dec-09 18:33N 24°25' E 118°17'0 0.0
2014-Dec-09 17:33N 24°25' E 118°17'0 0.0
2014-Dec-09 16:33N 24°25' E 118°17'0 0.0
2014-Dec-09 15:31N 24°25' E 118°17'0 0.0
2014-Dec-09 14:31N 24°25' E 118°17'  
Track history (hours):
 
Tides and Currents Weather Stations Pressure Air Temp Water Temp Dewpoint Dewpoint Depression Visibility Wind Speed Wind Dir Waves Ship Positions

Marco Polo

Last reported at 2014-Dec-19 09:33 UTC. Time now 2014-Dec-19 12:16 UTC.
Position N 24°25' E 118°17'.

Length 32 m.

MMSI: 416000256.

Date/timePositionNaut miles runAvg speedWind from/ knotsBaromVisibWave heightAir tempDewpointWater temp
2014-Dec-19 09:33N 24°25' E 118°17'0 0.0
2014-Dec-19 08:33N 24°25' E 118°17'0 0.3
2014-Dec-19 07:29N 24°25' E 118°17'9 9.5
2014-Dec-19 06:33N 24°32' E 118°11'9 8.7
2014-Dec-19 05:31N 24°25' E 118°17'0 0.0
2014-Dec-19 04:32N 24°25' E 118°17'1 0.4
2014-Dec-19 01:33N 24°26' E 118°17'8 7.8
2014-Dec-19 00:32N 24°32' E 118°11'9 1.0
2014-Dec-18 15:28N 24°25' E 118°17'9 1.5
2014-Dec-18 09:29N 24°32' E 118°11'2 0.5
2014-Dec-18 04:29N 24°31' E 118°14'6 0.6
2014-Dec-17 17:24N 24°25' E 118°17'0 0.0
2014-Dec-17 16:29N 24°25' E 118°17'0 0.1
2014-Dec-17 08:32N 24°25' E 118°17'9 7.9
2014-Dec-17 07:24N 24°32' E 118°11'9 3.8
2014-Dec-17 05:03N 24°25' E 118°17'0 0.0
2014-Dec-17 04:30N 24°25' E 118°17'7 7.9
2014-Dec-17 03:33N 24°31' E 118°13'0 0.1
2014-Dec-17 02:31N 24°31' E 118°13'7 5.6
2014-Dec-17 01:10N 24°25' E 118°17'0 0.1
2014-Dec-17 00:33N 24°25' E 118°17'0 0.0
2014-Dec-16 23:29N 24°25' E 118°17'0 0.0
2014-Dec-16 22:33N 24°25' E 118°17'0 0.0
2014-Dec-16 21:33N 24°25' E 118°17'0 0.0
2014-Dec-16 20:33N 24°25' E 118°17'0 0.0
2014-Dec-16 19:32N 24°25' E 118°17'0 0.0
2014-Dec-16 18:33N 24°25' E 118°17'0 0.0
2014-Dec-16 17:32N 24°25' E 118°17'0 0.0
2014-Dec-16 16:33N 24°25' E 118°17'0 0.0
2014-Dec-16 15:33N 24°25' E 118°17'0 0.0
2014-Dec-16 14:33N 24°25' E 118°17'0 0.0
2014-Dec-16 09:33N 24°25' E 118°17'0 0.0
2014-Dec-16 08:32N 24°25' E 118°17'0 0.0
2014-Dec-16 07:32N 24°25' E 118°17'0 0.2
2014-Dec-16 06:33N 24°25' E 118°17'9 7.5
2014-Dec-16 05:23N 24°32' E 118°11'4 3.9
2014-Dec-16 04:25N 24°30' E 118°15'6 5.5
2014-Dec-16 03:24N 24°25' E 118°17'5 4.7
2014-Dec-16 02:15N 24°30' E 118°15'1 1.6
2014-Dec-16 01:32N 24°31' E 118°14'6 2.8
2014-Dec-15 23:11N 24°25' E 118°17'0 0.0
2014-Dec-15 22:13N 24°25' E 118°17'0 0.0
2014-Dec-15 21:29N 24°25' E 118°17'0 0.0
2014-Dec-15 20:33N 24°25' E 118°17'0 0.0
2014-Dec-15 18:08N 24°25' E 118°17'0 0.0
2014-Dec-15 15:24N 24°25' E 118°17'0 0.0
2014-Dec-15 09:28N 24°25' E 118°17'9 8.5
2014-Dec-15 08:25N 24°32' E 118°11'910.1
2014-Dec-15 07:31N 24°25' E 118°17'7 1.8
2014-Dec-15 03:33N 24°31' E 118°13'0 0.2
2014-Dec-15 02:33N 24°31' E 118°13'7 7.0
2014-Dec-15 01:29N 24°25' E 118°17'0 0.1
2014-Dec-15 00:32N 24°25' E 118°17'0 0.0
2014-Dec-14 23:33N 24°25' E 118°17'0 0.0
2014-Dec-14 22:33N 24°25' E 118°17'0 0.0
2014-Dec-14 21:31N 24°25' E 118°17'0 0.0
2014-Dec-14 20:32N 24°25' E 118°17'0 0.0
2014-Dec-14 19:32N 24°25' E 118°17'0 0.0
2014-Dec-14 18:34N 24°25' E 118°17'0 0.0
2014-Dec-14 17:34N 24°25' E 118°17'0 0.0
2014-Dec-14 16:34N 24°25' E 118°17'0 0.0
2014-Dec-14 15:33N 24°25' E 118°17'0 0.0
2014-Dec-14 14:31N 24°25' E 118°17'0 0.0
2014-Dec-14 09:33N 24°25' E 118°17'0 0.0
2014-Dec-14 08:30N 24°25' E 118°17'0 0.1
2014-Dec-14 07:32N 24°25' E 118°17'9 8.3
2014-Dec-14 06:27N 24°32' E 118°11'9 9.9
2014-Dec-14 05:33N 24°25' E 118°17'0 0.1
2014-Dec-14 04:04N 24°25' E 118°17'0 0.1
2014-Dec-14 03:33N 24°25' E 118°17'0 0.0
2014-Dec-14 02:32N 24°25' E 118°17'0 0.1
2014-Dec-14 01:33N 24°25' E 118°17'9 8.2
2014-Dec-14 00:31N 24°32' E 118°12'9 8.3
2014-Dec-13 23:28N 24°25' E 118°17'0 0.0
2014-Dec-13 22:31N 24°25' E 118°17'0 0.0
2014-Dec-13 21:30N 24°25' E 118°17'0 0.0
2014-Dec-13 20:33N 24°25' E 118°17'0 0.0
2014-Dec-13 19:32N 24°25' E 118°17'0 0.0
2014-Dec-13 18:30N 24°25' E 118°17'0 0.0
2014-Dec-13 17:28N 24°25' E 118°17'0 0.0
2014-Dec-13 16:32N 24°25' E 118°17'0 0.0
2014-Dec-13 15:32N 24°25' E 118°17'9 1.5
2014-Dec-13 09:30N 24°32' E 118°11'9 9.1
2014-Dec-13 08:33N 24°25' E 118°17'0 0.3
2014-Dec-13 07:26N 24°25' E 118°17'0 0.4
2014-Dec-13 06:19N 24°25' E 118°17'0 0.0
2014-Dec-13 05:28N 24°25' E 118°17'0 0.0
2014-Dec-13 01:25N 24°25' E 118°17'0 0.0
2014-Dec-13 00:25N 24°25' E 118°17'0 0.0
2014-Dec-12 23:33N 24°25' E 118°17'0 0.0
2014-Dec-12 22:32N 24°25' E 118°17'0 0.0
2014-Dec-12 21:31N 24°25' E 118°17'0 0.0
2014-Dec-12 20:33N 24°25' E 118°17'0 0.0
2014-Dec-12 19:22N 24°25' E 118°17'0 0.0
2014-Dec-12 18:32N 24°25' E 118°17'0 0.0
2014-Dec-12 17:32N 24°25' E 118°17'0 0.0
2014-Dec-12 16:30N 24°25' E 118°17'0 0.0
2014-Dec-12 15:33N 24°25' E 118°17'0 0.0
2014-Dec-12 09:08N 24°25' E 118°17'0 0.8
2014-Dec-12 08:33N 24°25' E 118°17'9 8.1
2014-Dec-12 07:26N 24°32' E 118°11'9 9.3
2014-Dec-12 06:28N 24°25' E 118°17'0 0.1
2014-Dec-12 05:32N 24°25' E 118°17'7 7.6
2014-Dec-12 04:33N 24°31' E 118°13'1 1.0
2014-Dec-12 03:32N 24°32' E 118°12'8 3.7
2014-Dec-12 01:22N 24°25' E 118°17'0 0.0
2014-Dec-12 00:23N 24°25' E 118°17'0 0.0
2014-Dec-11 23:31N 24°25' E 118°17'0 0.0
2014-Dec-11 22:33N 24°25' E 118°17'0 0.0
2014-Dec-11 21:30N 24°25' E 118°17'0 0.0
2014-Dec-11 20:33N 24°25' E 118°17'0 0.0
2014-Dec-11 19:33N 24°25' E 118°17'0 0.0
2014-Dec-11 18:33N 24°25' E 118°17'0 0.0
2014-Dec-11 17:32N 24°25' E 118°17'0 0.0
2014-Dec-11 16:32N 24°25' E 118°17'0 0.0
2014-Dec-11 15:32N 24°25' E 118°17'0 0.0
2014-Dec-11 09:29N 24°25' E 118°17'0 0.0
2014-Dec-11 08:33N 24°25' E 118°17'0 0.0
2014-Dec-11 07:28N 24°25' E 118°17'0 0.4
2014-Dec-11 06:33N 24°25' E 118°17'9 6.5
2014-Dec-11 05:11N 24°32' E 118°11'1 2.2
2014-Dec-11 04:32N 24°31' E 118°13'8 6.7
2014-Dec-11 03:23N 24°25' E 118°17'2 2.2
2014-Dec-11 02:31N 24°27' E 118°17'6 6.2
2014-Dec-11 01:34N 24°31' E 118°13'8 5.3
2014-Dec-11 00:08N 24°25' E 118°17'0 0.0
2014-Dec-10 23:11N 24°25' E 118°17'0 0.0
2014-Dec-10 22:26N 24°25' E 118°17'0 0.0
2014-Dec-10 21:17N 24°25' E 118°17'0 0.0
2014-Dec-10 20:33N 24°25' E 118°17'0 0.0
2014-Dec-10 19:15N 24°25' E 118°17'0 0.0
2014-Dec-10 18:32N 24°25' E 118°17'0 0.0
2014-Dec-10 17:25N 24°25' E 118°17'0 0.0
2014-Dec-10 16:33N 24°25' E 118°17'0 0.0
2014-Dec-10 09:34N 24°25' E 118°17'9 7.1
2014-Dec-10 08:20N 24°32' E 118°11'911.1
2014-Dec-10 07:32N 24°25' E 118°17'0 0.4
2014-Dec-10 06:32N 24°25' E 118°17'0 0.1
2014-Dec-10 04:16N 24°25' E 118°17'810.2
2014-Dec-10 03:31N 24°32' E 118°13'1 0.8
2014-Dec-10 02:32N 24°32' E 118°12'9 4.3
2014-Dec-10 00:33N 24°25' E 118°17'0 0.0
2014-Dec-09 23:33N 24°25' E 118°17'0 0.0
2014-Dec-09 22:31N 24°25' E 118°17'0 0.0
2014-Dec-09 21:33N 24°25' E 118°17'0 0.0
2014-Dec-09 20:33N 24°25' E 118°17'0 0.0
2014-Dec-09 19:33N 24°25' E 118°17'0 0.0
2014-Dec-09 18:33N 24°25' E 118°17'0 0.0
2014-Dec-09 17:33N 24°25' E 118°17'0 0.0
2014-Dec-09 16:33N 24°25' E 118°17'0 0.0
2014-Dec-09 15:31N 24°25' E 118°17'0 0.0
2014-Dec-09 14:31N 24°25' E 118°17'  

Dump ship's entire track history